Latest Weather Observations for Maningrida Airport

IDD60801

Issued at 7:01 am CST Friday 6 May 2016 (issued every 30 minutes, with the page automatically refreshed every 10 minutes)

About weather observations | Map of weather stations | Latest weather observations for NT | Other Formats
Station Details ID: 014405 Name: MANINGRIDA AIRPORT Lat: -12.06 Lon: 134.23 Height: 28.1 m
Data from the previous 72 hours. | See also: Recent months at Maningrida Airport
Date/Time
CST
Temp
°C
App
Temp
°C
Dew
Point
Rel
Hum
%
Delta-T
°C
Wind Press
QNH
hPa
Press
MSL
hPa
Rain
since 9 am
mm
Dir
 
Spd
km/h
Gust
km/h
Spd
kts
Gust
kts
06/07:00am 24.2 27.5 23.2 94 0.7 SSE 11 13 6 7 1010.1 1010.0 0.2
06/06:30am 24.0 27.2 23.0 94 0.7 SSE 11 13 6 7 1009.9 1009.8 0.2
06/06:00am 23.9 27.5 23.0 95 0.6 SSE 9 13 5 7 1009.9 1009.8 0.2
06/05:30am 23.9 27.5 23.0 95 0.6 SSE 9 11 5 6 1009.8 1009.7 0.2
06/05:00am 24.0 27.9 23.0 94 0.7 SSE 7 9 4 5 1009.8 1009.7 0.2
06/04:30am 24.1 27.2 22.9 93 0.8 SSE 11 13 6 7 1009.6 1009.5 0.2
06/04:00am 24.3 27.8 22.9 92 0.9 SSE 9 13 5 7 1009.7 1009.6 0.2
06/03:30am 24.5 27.6 22.8 90 1.1 SSE 11 15 6 8 1009.5 1009.4 0.2
06/03:00am 25.3 28.1 23.0 87 1.6 SE 13 17 7 9 1009.6 1009.5 0.2
06/02:30am 24.6 27.2 22.7 89 1.3 SSE 13 17 7 9 1009.7 1009.6 0.2
06/02:00am 24.8 27.4 22.7 88 1.4 SSE 13 15 7 8 1010.0 1009.9 0.2
06/01:30am 25.0 28.5 22.9 88 1.4 SSE 9 11 5 6 1010.2 1010.1 0.2
06/01:00am 25.6 28.6 22.7 84 2.0 SSE 11 15 6 8 1010.6 1010.5 0.2
06/12:30am 25.6 28.3 22.9 85 1.8 SSE 13 17 7 9 1010.8 1010.7 0.2
06/12:00am 25.7 29.2 22.8 84 2.0 SSE 9 13 5 7 1010.6 1010.5 0.2
 
Date/Time
CST
Temp
°C
App
Temp
°C
Dew
Point
Rel
Hum
%
Delta-T
°C
Wind Press
QNH
hPa
Press
MSL
hPa
Rain
since 9 am
mm
Dir
 
Spd
km/h
Gust
km/h
Spd
kts
Gust
kts
05/11:30pm 26.0 29.1 22.9 83 2.1 SE 11 13 6 7 1010.4 1010.3 0.2
05/11:00pm 26.4 30.0 23.1 82 2.2 SE 9 13 5 7 1010.3 1010.2 0.2
05/10:30pm 25.8 29.9 23.3 86 1.7 SE 7 9 4 5 1010.2 1010.1 0.2
05/10:00pm 26.0 29.5 23.5 86 1.7 SE 11 13 6 7 1010.4 1010.3 0.2
05/09:30pm 26.0 29.4 23.3 85 1.8 SSE 11 13 6 7 1010.7 1010.6 0.2
05/09:00pm 26.4 29.9 22.9 81 2.4 SSE 9 11 5 6 1010.6 1010.5 0.2
05/08:30pm 26.7 29.9 23.0 80 2.5 SE 11 15 6 8 1010.4 1010.3 0.2
05/08:00pm 26.7 29.9 22.3 77 3.0 SE 9 13 5 7 1009.9 1009.8 0.2
05/07:30pm 27.7 31.6 22.6 74 3.5 ESE 6 9 3 5 1009.8 1009.7 0.2
05/07:00pm 28.6 32.6 23.7 75 3.4 ESE 9 11 5 6 1009.8 1009.7 0.2
05/06:30pm 28.8 32.5 23.9 75 3.4 E 11 17 6 9 1009.7 1009.6 0.2
05/06:00pm 29.3 32.0 23.5 71 4.0 ENE 15 22 8 12 1009.2 1009.1 0.2
05/05:30pm 30.0 32.8 23.7 69 4.4 NE 15 26 8 14 1008.6 1008.5 0.2
05/05:00pm 30.5 32.7 23.2 65 5.0 NE 17 28 9 15 1008.7 1008.6 0.2
05/04:30pm 30.7 32.8 23.1 64 5.2 NE 17 28 9 15 1008.6 1008.5 0.2
05/04:00pm 31.4 33.3 22.7 60 6.0 NE 17 24 9 13 1008.6 1008.5 0.2
05/03:30pm 31.1 32.8 23.0 62 5.6 NE 19 26 10 14 1008.7 1008.6 0.2
05/03:00pm 31.4 33.1 23.0 61 5.8 NE 19 28 10 15 1008.8 1008.7 0.2
05/02:30pm 31.8 34.2 23.6 62 5.7 ENE 17 28 9 15 1009.1 1009.0 0.2
05/02:00pm 31.4 32.5 22.4 59 6.1 NE 20 30 11 16 1009.6 1009.5 0.2
05/01:30pm 31.7 33.5 23.2 60 5.9 NE 19 30 10 16 1010.1 1010.0 0.2
05/01:00pm 31.6 33.0 22.9 60 6.0 NE 20 32 11 17 1010.5 1010.4 0.2
05/12:30pm 32.6 34.4 23.3 58 6.4 ENE 19 32 10 17 1010.9 1010.8 0.2
05/12:00pm 31.9 33.3 22.6 58 6.4 NE 19 30 10 16 1011.3 1011.1 0.2
05/11:30am 31.2 33.6 23.0 61 5.6 E 15 20 8 11 1011.7 1011.5 0.2
05/11:00am 31.7 34.3 24.0 63 5.4 E 17 24 9 13 1012.0 1011.8 0.2
05/10:30am 30.9 32.7 22.5 61 5.7 E 17 22 9 12 1012.2 1012.0 0.2
05/10:00am 30.4 32.8 23.6 67 4.7 ESE 17 28 9 15 1012.4 1012.2 0.2
05/09:30am 29.6 32.7 24.2 73 3.8 ESE 15 20 8 11 1012.4 1012.2 0.0
05/09:00am 29.2 32.6 24.1 74 3.5 ESE 13 19 7 10 1012.3 1012.1 1.0
05/08:30am 28.0 31.6 23.8 78 2.9 SSE 11 15 6 8 1012.1 1011.9 1.0
05/08:00am 27.0 31.1 23.9 83 2.1 SSE 9 13 5 7 1011.9 1011.7 1.0
05/07:30am 25.5 29.4 23.6 89 1.3 SSE 9 11 5 6 1011.4 1011.2 1.0
05/07:00am 24.2 27.8 23.0 93 0.8 SSE 9 11 5 6 1011.3 1011.1 1.0
05/06:30am 24.2 28.3 23.2 94 0.7 SSE 7 9 4 5 1010.9 1010.8 1.0
05/06:00am 24.0 27.2 23.0 94 0.7 SSE 11 13 6 7 1010.6 1010.5 1.0
05/05:30am 23.9 27.5 23.0 95 0.6 SSE 9 11 5 6 1010.5 1010.4 1.0
05/05:00am 24.3 28.2 22.9 92 0.9 SSE 7 11 4 6 1010.4 1010.3 1.0
05/04:30am 24.3 27.8 22.9 92 0.9 S 9 11 5 6 1010.5 1010.4 1.0
05/04:00am 24.5 28.7 23.1 92 0.9 S 6 7 3 4 1010.6 1010.5 1.0
05/03:30am 24.7 28.7 23.1 91 1.1 S 7 11 4 6 1010.6 1010.5 1.0
05/03:00am 25.0 29.1 23.2 90 1.2 S 7 11 4 6 1010.8 1010.7 1.0
05/02:30am 25.0 28.8 23.4 91 1.1 SSE 9 13 5 7 1011.0 1010.9 1.0
05/02:00am 25.0 29.1 23.2 90 1.2 S 7 9 4 5 1011.5 1011.3 1.0
05/01:30am 25.4 29.5 23.3 88 1.4 S 7 9 4 5 1011.9 1011.7 1.0
05/01:00am 25.6 29.7 23.3 87 1.6 S 7 11 4 6 1012.1 1011.9 1.0
05/12:30am 25.9 30.1 23.4 86 1.7 S 7 11 4 6 1012.3 1012.1 1.0
05/12:00am 26.2 30.2 23.7 86 1.7 SE 9 11 5 6 1012.2 1012.0 1.0
 
Date/Time
CST
Temp
°C
App
Temp
°C
Dew
Point
Rel
Hum
%
Delta-T
°C
Wind Press
QNH
hPa
Press
MSL
hPa
Rain
since 9 am
mm
Dir
 
Spd
km/h
Gust
km/h
Spd
kts
Gust
kts
04/11:30pm 26.3 30.4 23.2 83 2.1 ESE 7 9 4 5 1012.2 1012.0 1.0
04/11:00pm 26.4 30.6 23.5 84 2.0 ESE 7 9 4 5 1012.3 1012.1 1.0
04/10:30pm 26.4 30.0 23.1 82 2.2 ESE 9 13 5 7 1012.3 1012.1 1.0
04/10:00pm 26.3 30.1 23.4 84 2.0 ESE 9 11 5 6 1012.3 1012.1 1.0
04/09:30pm 26.2 30.8 24.1 88 1.4 SE 7 9 4 5 1012.4 1012.2 1.0
04/09:00pm 26.4 30.9 23.9 86 1.7 SE 7 9 4 5 1012.1 1011.9 1.0
04/08:30pm 26.4 29.8 23.3 83 2.1 ESE 11 13 6 7 1011.8 1011.6 1.0
04/08:00pm 26.0 30.2 23.5 86 1.7 ESE 7 9 4 5 1011.4 1011.2 1.0
04/07:30pm 26.0 30.1 23.9 88 1.4 ESE 9 13 5 7 1010.8 1010.7 1.0
04/07:00pm 25.7 29.7 23.7 89 1.4 ESE 9 11 5 6 1010.5 1010.4 1.0
04/06:30pm 25.9 29.9 23.8 88 1.4 ESE 9 13 5 7 1010.3 1010.2 1.0
04/06:00pm 25.6 30.3 24.0 91 1.1 ESE 6 7 3 4 1009.7 1009.6 1.0
04/05:30pm 24.1 27.1 22.0 88 1.4 SW 9 13 5 7 1009.6 1009.5 1.0
04/05:00pm 28.2 28.0 20.5 63 5.1 E 22 54 12 29 1009.7 1009.6 0.0
04/04:59pm 29.5 30.1 21.4 61 5.4 E 20 54 11 29 1009.5 1009.4 0.0
04/04:30pm 30.9 33.9 23.3 64 5.2 NE 13 17 7 9 1008.5 1008.4 0.0
04/04:00pm 31.9 34.8 23.2 60 6.0 NE 13 19 7 10 1008.3 1008.2 0.0
04/03:30pm 31.9 34.2 23.4 60 5.9 ENE 17 22 9 12 1008.7 1008.6 0.0
04/03:00pm 31.8 33.7 22.8 59 6.2 ENE 17 28 9 15 1008.9 1008.8 0.0
04/02:30pm 32.2 34.4 23.2 59 6.2 NE 17 24 9 13 1009.0 1008.9 0.0
04/02:00pm 32.4 34.5 23.1 58 6.4 ENE 17 24 9 13 1009.4 1009.3 0.0
04/01:30pm 32.6 34.5 23.5 58 6.3 ENE 19 30 10 16 1009.8 1009.7 0.0
04/01:00pm 32.2 33.9 23.4 59 6.1 ENE 20 30 11 16 1010.2 1010.1 0.0
04/12:30pm 32.4 36.0 24.4 62 5.6 ENE 13 19 7 10 1010.7 1010.6 0.0
04/12:00pm 31.5 34.6 24.1 65 5.2 ENE 15 24 8 13 1011.4 1011.2 0.0
04/11:30am 31.8 34.4 23.9 63 5.5 E 17 28 9 15 1011.9 1011.7 0.0
04/11:00am 31.5 34.2 24.1 65 5.2 ENE 17 24 9 13 1012.5 1012.3 0.0
04/10:30am 30.9 33.7 24.3 68 4.6 ENE 17 28 9 15 1012.7 1012.5 0.0
04/10:00am 30.1 32.7 24.0 70 4.2 ENE 17 28 9 15 1012.9 1012.7 0.0
04/09:30am 29.3 32.4 24.2 74 3.5 E 15 22 8 12 1013.1 1012.9 0.0
04/09:00am 29.0 33.1 24.6 77 3.1 E 11 17 6 9 1012.8 1012.6 2.2
04/08:30am 28.1 31.7 24.3 80 2.6 ESE 13 19 7 10 1012.6 1012.4 2.2
04/08:00am 26.7 30.8 24.0 85 1.9 SSE 9 11 5 6 1012.4 1012.2 2.2
04/07:30am 25.6 29.6 23.8 90 1.2 SSE 9 11 5 6 1012.0 1011.8 2.2
04/07:00am 24.6 28.6 23.7 95 0.6 SSE 9 11 5 6 1011.7 1011.5 2.2
04/06:30am 24.6 28.9 23.6 94 0.7 SSE 7 9 4 5 1011.3 1011.1 2.2
04/06:00am 24.8 29.1 23.6 93 0.8 SSE 7 9 4 5 1011.1 1011.0 2.2
04/05:30am 25.0 29.5 23.6 92 1.0 SE 6 9 3 5 1010.9 1010.8 2.2
04/05:00am 25.5 29.8 23.7 90 1.2 SE 7 9 4 5 1010.6 1010.5 2.2
04/04:30am 25.5 29.8 23.6 89 1.3 SSE 7 9 4 5 1010.2 1010.1 2.2
04/04:00am 25.8 29.8 23.7 88 1.4 SSE 9 11 5 6 1010.3 1010.2 2.2
04/03:30am 25.8 29.8 23.7 88 1.4 SE 9 11 5 6 1010.6 1010.5 2.2
04/03:00am 26.0 30.0 23.7 87 1.6 SE 9 11 5 6 1010.7 1010.6 2.2
04/02:30am 25.9 30.4 23.9 89 1.4 SSE 7 9 4 5 1010.8 1010.7 2.2
04/02:00am 26.1 30.5 23.8 87 1.6 SSE 7 9 4 5 1010.9 1010.8 2.2
04/01:30am 26.3 30.3 23.8 86 1.7 SSE 9 13 5 7 1011.1 1011.0 2.2
04/01:00am 26.5 30.6 24.0 86 1.7 ESE 9 13 5 7 1011.3 1011.1 2.2
04/12:30am 26.7 30.5 24.0 85 1.9 ESE 11 17 6 9 1011.7 1011.5 2.2
04/12:00am 26.7 30.8 24.5 88 1.5 ESE 11 15 6 8 1011.9 1011.7 2.2
 
Date/Time
CST
Temp
°C
App
Temp
°C
Dew
Point
Rel
Hum
%
Delta-T
°C
Wind Press
QNH
hPa
Press
MSL
hPa
Rain
since 9 am
mm
Dir
 
Spd
km/h
Gust
km/h
Spd
kts
Gust
kts
03/11:30pm 26.9 31.3 24.5 87 1.7 ESE 9 13 5 7 1012.2 1012.0 2.2
03/11:00pm 27.0 31.1 24.6 87 1.7 SE 11 15 6 8 1012.4 1012.2 2.2
03/10:30pm 27.3 31.3 25.1 88 1.5 ESE 13 17 7 9 1012.3 1012.1 2.2
03/10:00pm 27.1 32.0 25.3 90 1.3 SE 9 11 5 6 1012.4 1012.2 2.2
03/09:30pm 27.4 32.7 25.2 88 1.5 ESE 7 9 4 5 1012.3 1012.1 2.2
03/09:00pm 27.5 32.7 25.1 87 1.7 ESE 7 7 4 4 1012.1 1011.9 2.2
03/08:30pm 27.4 32.7 25.2 88 1.5 E 7 9 4 5 1011.8 1011.6 2.2
03/08:00pm 27.0 33.8 25.6 92 1.0 CALM 0 0 0 0 1011.5 1011.3 2.2
03/07:30pm 26.9 33.5 25.3 91 1.1 CALM 0 0 0 0 1011.3 1011.1 2.2
03/07:00pm 27.5 34.1 25.3 88 1.5 CALM 0 6 0 3 1010.8 1010.7 2.2
03/06:30pm 27.5 32.4 24.7 85 2.0 E 7 7 4 4 1010.3 1010.2 2.2
03/06:00pm 28.0 33.1 24.6 82 2.4 E 6 7 3 4 1009.9 1009.8 2.2
03/05:30pm 28.4 33.5 24.6 80 2.7 E 6 11 3 6 1009.6 1009.5 2.2
03/05:00pm 28.6 33.5 24.6 79 2.8 E 7 9 4 5 1009.2 1009.1 2.2
03/04:30pm 28.9 33.0 24.0 75 3.4 ENE 9 13 5 7 1009.0 1008.9 2.2
03/04:00pm 28.9 33.1 24.7 78 2.9 ENE 11 15 6 8 1008.6 1008.5 2.2
03/03:30pm 29.4 34.0 24.7 76 3.3 NE 9 15 5 8 1008.9 1008.8 2.2
03/03:00pm 29.6 33.4 23.5 69 4.2 ENE 9 15 5 8 1009.2 1009.1 2.2
03/02:30pm 29.9 34.9 24.5 73 3.8 NE 6 11 3 6 1009.8 1009.7 2.2
03/02:00pm 30.0 34.3 24.2 71 4.0 E 9 11 5 6 1010.2 1010.1 2.2
03/01:30pm 30.2 35.0 24.1 70 4.2 E 6 9 3 5 1010.5 1010.4 2.2
03/01:00pm 30.3 34.9 24.7 72 3.9 E 9 15 5 8 1011.0 1010.9 2.2
03/12:30pm 29.9 34.2 24.3 72 3.9 ENE 9 17 5 9 1011.8 1011.6 2.2
03/12:00pm 29.1 33.2 24.0 74 3.5 ESE 9 15 5 8 1012.3 1012.1 2.2
03/11:30am 27.9 33.5 25.7 88 1.6 SE 7 11 4 6 1012.6 1012.4 2.2
03/11:00am 26.8 33.4 25.8 94 0.7 ESE 2 7 1 4 1013.0 1012.8 2.2
03/10:30am 26.3 32.2 25.4 95 0.6 ENE 4 6 2 3 1013.2 1013.0 2.0
03/10:00am 25.6 31.8 24.6 94 0.7 CALM 0 0 0 0 1013.6 1013.4 1.8
03/09:30am 25.2 29.8 23.8 92 1.0 NE 6 9 3 5 1013.7 1013.5 1.0
03/09:00am 25.8 29.9 24.6 93 0.8 ESE 11 17 6 9 1013.8 1013.6 1.0
03/08:30am 26.0 30.9 24.6 92 1.0 SSE 7 11 4 6 1013.0 1012.8 1.0
03/08:00am 25.7 30.3 24.7 94 0.7 SSE 9 13 5 7 1012.9 1012.7 1.0
03/07:30am 25.3 30.1 24.4 95 0.6 SSE 7 9 4 5 1012.6 1012.4 1.0

Other Formats:

Comma delimited format used in spreadsheet applications
http://www.bom.gov.au/fwo/IDD60801/IDD60801.95142.axf

JavaScript Object Notation format (JSON) in row-major order
http://www.bom.gov.au/fwo/IDD60801/IDD60801.95142.json